createdAt,value
2022-12-13T00:01:50.451Z,13.37
2022-12-13T00:04:52.849Z,13.34
2022-12-13T00:07:55.096Z,13.30
2022-12-13T00:11:06.820Z,13.07
2022-12-13T00:14:09.343Z,12.98
2022-12-13T00:17:11.612Z,12.84
2022-12-13T00:20:13.605Z,12.88
2022-12-13T00:23:15.737Z,12.82
2022-12-13T00:26:22.486Z,12.91
2022-12-13T00:29:24.553Z,12.96
2022-12-13T00:32:26.737Z,12.87
2022-12-13T00:35:28.889Z,12.88
2022-12-13T00:38:30.937Z,12.91
2022-12-13T00:41:35.527Z,13.16
2022-12-13T00:44:37.663Z,13.09
2022-12-13T00:47:41.009Z,13.13
2022-12-13T00:50:43.152Z,13.03
2022-12-13T00:53:45.287Z,12.90
2022-12-13T00:56:47.722Z,13.01
2022-12-13T00:59:50.886Z,12.87
2022-12-13T01:02:53.934Z,12.77
2022-12-13T01:09:21.850Z,12.67
2022-12-13T01:12:24.147Z,12.58
2022-12-13T01:15:26.249Z,12.46
2022-12-13T01:18:28.381Z,12.53
2022-12-13T01:21:30.461Z,12.56
2022-12-13T01:24:32.916Z,12.49
2022-12-13T01:27:35.057Z,12.52
2022-12-13T01:30:37.190Z,12.43
2022-12-13T01:33:40.651Z,12.76
2022-12-13T01:36:44.731Z,12.50
2022-12-13T01:39:46.799Z,12.67
2022-12-13T01:42:48.924Z,12.61
2022-12-13T01:45:51.023Z,12.53
2022-12-13T01:49:19.301Z,12.45
2022-12-13T01:52:22.901Z,12.65
2022-12-13T01:55:27.817Z,12.52
2022-12-13T01:58:30.697Z,12.25
2022-12-13T02:01:33.205Z,12.43
2022-12-13T02:04:45.184Z,12.21
2022-12-13T02:07:48.927Z,12.28
2022-12-13T02:10:52.409Z,12.29
2022-12-13T02:13:54.776Z,12.17
2022-12-13T02:17:53.361Z,12.40
2022-12-13T02:21:03.626Z,12.23
2022-12-13T02:24:24.401Z,12.45
2022-12-13T02:28:01.010Z,12.55
2022-12-13T02:31:30.261Z,12.41
2022-12-13T02:34:42.272Z,12.39
2022-12-13T02:38:06.219Z,12.32
2022-12-13T02:41:21.159Z,12.20
2022-12-13T02:44:25.632Z,12.20
2022-12-13T02:47:31.655Z,11.89
2022-12-13T02:50:36.039Z,12.01
2022-12-13T02:53:41.260Z,12.02
2022-12-13T02:56:53.085Z,12.01
2022-12-13T02:59:55.295Z,11.99
2022-12-13T03:03:31.379Z,11.93
2022-12-13T03:06:54.616Z,11.98
2022-12-13T03:10:51.638Z,11.90
2022-12-13T03:14:00.452Z,12.19
2022-12-13T03:17:05.743Z,12.09
2022-12-13T03:20:22.515Z,11.95
2022-12-13T03:23:26.392Z,12.07
2022-12-13T03:26:28.806Z,12.00
2022-12-13T03:29:30.920Z,12.00
2022-12-13T03:32:33.264Z,11.86
2022-12-13T03:35:44.913Z,11.75
2022-12-13T03:38:50.703Z,11.75
2022-12-13T03:41:52.905Z,11.80
2022-12-13T03:44:54.914Z,11.60
2022-12-13T03:47:57.035Z,11.71
2022-12-13T03:50:59.252Z,11.58
2022-12-13T03:54:01.378Z,11.46
2022-12-13T03:57:03.772Z,11.73
2022-12-13T04:00:06.711Z,11.60
2022-12-13T04:03:14.750Z,11.99
2022-12-13T04:06:21.795Z,11.95
2022-12-13T04:09:24.347Z,11.91
2022-12-13T04:12:48.384Z,11.93
2022-12-13T04:15:50.760Z,11.67
2022-12-13T04:18:52.886Z,11.71
2022-12-13T04:21:54.973Z,11.73
2022-12-13T04:24:57.013Z,11.65
2022-12-13T04:27:59.191Z,11.62
2022-12-13T04:31:02.159Z,11.53
2022-12-13T04:34:04.193Z,11.56
2022-12-13T04:37:06.860Z,11.42
2022-12-13T04:40:09.470Z,11.40
2022-12-13T04:43:20.579Z,11.50
2022-12-13T04:46:23.280Z,11.43
2022-12-13T04:49:25.387Z,11.40
2022-12-13T04:52:29.299Z,11.58
2022-12-13T04:55:34.209Z,11.54
2022-12-13T04:58:36.247Z,11.51
2022-12-13T05:01:38.369Z,11.50
2022-12-13T05:04:42.693Z,11.46
2022-12-13T05:07:44.874Z,11.35
2022-12-13T05:10:46.861Z,11.38
2022-12-13T05:13:49.038Z,11.31
2022-12-13T05:16:51.247Z,11.26
2022-12-13T05:19:55.630Z,11.17
2022-12-13T05:22:58.859Z,11.33
2022-12-13T05:26:01.196Z,11.11
2022-12-13T05:29:04.182Z,11.34
2022-12-13T05:32:06.488Z,11.34
2022-12-13T05:35:08.889Z,11.19
2022-12-13T05:38:15.447Z,11.42
2022-12-13T05:41:22.376Z,11.59
2022-12-13T05:44:24.558Z,11.77
2022-12-13T05:47:26.645Z,11.91
2022-12-13T05:50:28.782Z,12.04
2022-12-13T05:53:31.267Z,11.87
2022-12-13T05:56:34.301Z,11.97
2022-12-13T05:59:38.434Z,11.93
2022-12-13T06:02:42.192Z,12.01
2022-12-13T06:05:44.755Z,12.02
2022-12-13T06:08:46.817Z,11.97
2022-12-13T06:11:49.736Z,12.05
2022-12-13T06:14:52.116Z,11.98
2022-12-13T06:18:03.461Z,11.99
2022-12-13T06:21:07.168Z,12.01
2022-12-13T06:24:09.494Z,11.97
2022-12-13T06:27:12.053Z,11.83
2022-12-13T06:30:14.247Z,11.74
2022-12-13T06:33:23.398Z,11.64
2022-12-13T06:36:25.697Z,11.81
2022-12-13T06:39:33.183Z,12.88
2022-12-13T06:42:35.570Z,14.00
2022-12-13T06:45:42.275Z,14.51
2022-12-13T06:48:45.757Z,15.03
2022-12-13T06:51:49.309Z,14.78
2022-12-13T06:54:55.486Z,14.82
2022-12-13T06:58:00.666Z,16.00
2022-12-13T07:01:15.012Z,15.52
2022-12-13T07:04:29.629Z,15.20
2022-12-13T07:07:33.008Z,15.16
2022-12-13T07:10:35.329Z,15.14
2022-12-13T07:13:37.804Z,15.23
2022-12-13T07:16:39.862Z,14.97
2022-12-13T07:19:41.874Z,15.01
2022-12-13T07:22:48.511Z,14.82
2022-12-13T07:25:56.034Z,14.80
2022-12-13T07:29:00.135Z,14.55
2022-12-13T07:32:02.351Z,15.55
2022-12-13T07:35:04.574Z,16.60
2022-12-13T07:38:08.356Z,17.18
2022-12-13T07:41:12.250Z,17.63
2022-12-13T07:44:14.502Z,17.73
2022-12-13T07:47:16.567Z,17.93
2022-12-13T07:50:36.850Z,18.06
2022-12-13T07:53:40.564Z,18.05
2022-12-13T07:56:42.838Z,16.93
2022-12-13T07:59:44.994Z,15.85
2022-12-13T08:02:47.310Z,15.34
2022-12-13T08:05:49.440Z,16.15
2022-12-13T08:09:00.693Z,17.02
2022-12-13T08:12:05.518Z,17.66
2022-12-13T08:15:13.790Z,18.10
2022-12-13T08:18:16.334Z,18.35
2022-12-13T08:21:51.762Z,18.49
2022-12-13T08:24:40.827Z,18.61
2022-12-13T08:27:43.230Z,18.64
2022-12-13T08:30:45.917Z,18.57
2022-12-13T08:33:48.867Z,18.57
2022-12-13T08:36:52.506Z,18.61
2022-12-13T08:40:06.509Z,18.54
2022-12-13T08:43:08.570Z,18.52
2022-12-13T08:46:10.705Z,18.49
2022-12-13T08:49:12.866Z,18.45
2022-12-13T08:52:15.211Z,18.04
2022-12-13T08:55:19.996Z,17.95
2022-12-13T08:58:24.501Z,17.91
2022-12-13T09:01:26.501Z,17.76
2022-12-13T09:04:31.225Z,17.54
2022-12-13T09:07:36.390Z,17.11
2022-12-13T09:10:38.918Z,16.82
2022-12-13T09:13:43.290Z,17.08
2022-12-13T09:16:50.755Z,17.31
2022-12-13T09:19:58.457Z,17.33
2022-12-13T09:23:03.540Z,17.50
2022-12-13T09:26:06.345Z,17.56
2022-12-13T09:29:10.700Z,17.58
2022-12-13T09:32:13.774Z,17.49
2022-12-13T09:35:15.980Z,17.56
2022-12-13T09:38:18.673Z,17.67
2022-12-13T09:41:32.450Z,17.48
2022-12-13T09:44:53.650Z,17.51
2022-12-13T09:48:13.498Z,17.53
2022-12-13T09:51:26.177Z,17.57
2022-12-13T09:54:34.443Z,17.26
2022-12-13T09:57:37.257Z,17.06
2022-12-13T10:00:40.968Z,16.95
2022-12-13T10:03:51.925Z,16.81
2022-12-13T10:06:54.899Z,16.73
2022-12-13T10:10:04.028Z,16.72
2022-12-13T10:13:27.686Z,16.63
2022-12-13T10:16:37.127Z,16.57
2022-12-13T10:19:43.435Z,16.31
2022-12-13T10:23:33.320Z,16.36
2022-12-13T10:26:44.674Z,16.37
2022-12-13T10:30:05.935Z,16.33
2022-12-13T10:33:24.397Z,16.19
2022-12-13T10:36:41.589Z,16.27
2022-12-13T10:39:44.931Z,16.31
2022-12-13T10:43:15.508Z,16.21
2022-12-13T10:46:25.151Z,16.19
2022-12-13T10:49:38.146Z,16.10
2022-12-13T10:52:47.227Z,16.02
2022-12-13T10:55:55.776Z,16.30
2022-12-13T10:59:37.524Z,16.71
2022-12-13T11:02:39.934Z,16.97
2022-12-13T11:05:42.498Z,17.15
2022-12-13T11:08:44.756Z,17.31
2022-12-13T11:11:50.408Z,17.34
2022-12-13T11:15:04.704Z,17.28
2022-12-13T11:18:19.818Z,17.27
2022-12-13T11:21:29.563Z,17.28
2022-12-13T11:24:36.328Z,16.94
2022-12-13T11:28:02.522Z,15.09
2022-12-13T11:31:28.610Z,13.80
2022-12-13T11:34:59.654Z,13.10
2022-12-13T11:38:17.917Z,12.79
2022-12-13T11:41:31.395Z,12.48
2022-12-13T11:44:55.956Z,12.49
2022-12-13T11:48:09.987Z,12.63
2022-12-13T11:51:15.860Z,12.65
2022-12-13T11:54:28.377Z,12.70
2022-12-13T11:57:44.541Z,12.74
2022-12-13T12:01:05.167Z,12.76
2022-12-13T12:04:19.641Z,12.72
2022-12-13T12:07:58.533Z,12.55
2022-12-13T12:11:35.864Z,12.18
2022-12-13T12:14:54.299Z,12.03
2022-12-13T12:17:57.012Z,12.17
2022-12-13T12:22:05.017Z,12.34
2022-12-13T12:25:43.991Z,12.32
2022-12-13T12:28:51.726Z,12.32
2022-12-13T12:31:58.232Z,12.28
2022-12-13T12:35:01.625Z,12.38
2022-12-13T12:38:04.115Z,12.42
2022-12-13T12:41:21.283Z,12.42
2022-12-13T12:44:31.338Z,12.26
2022-12-13T12:51:55.846Z,12.23
2022-12-13T12:55:13.492Z,12.33
2022-12-13T12:58:29.432Z,12.31
2022-12-13T13:02:12.933Z,12.16
2022-12-13T13:05:19.111Z,12.18
2022-12-13T13:08:56.610Z,12.22
2022-12-13T13:12:28.398Z,12.18
2022-12-13T13:15:53.330Z,12.30
2022-12-13T13:18:56.570Z,12.30
2022-12-13T13:22:01.483Z,12.23
2022-12-13T13:25:06.946Z,12.23
2022-12-13T13:28:14.886Z,12.22
2022-12-13T13:31:17.212Z,12.18
2022-12-13T13:34:27.430Z,12.31
2022-12-13T13:37:46.753Z,12.21
2022-12-13T13:40:49.869Z,12.18
2022-12-13T13:43:52.016Z,12.08
2022-12-13T13:47:22.482Z,12.07
2022-12-13T13:50:33.475Z,12.04
2022-12-13T13:53:52.765Z,12.02
2022-12-13T13:58:07.095Z,12.11
2022-12-13T14:01:33.629Z,12.58
2022-12-13T14:04:51.702Z,12.50
2022-12-13T14:08:20.775Z,12.32
2022-12-13T14:12:00.322Z,12.35
2022-12-13T14:15:30.739Z,12.42
2022-12-13T14:18:53.606Z,12.34
2022-12-13T14:21:58.418Z,12.30
2022-12-13T14:25:19.067Z,12.27
2022-12-13T14:28:45.901Z,12.29
2022-12-13T14:31:50.122Z,12.31
2022-12-13T14:34:54.307Z,12.28
2022-12-13T14:38:08.150Z,12.29
2022-12-13T14:41:20.044Z,12.19
2022-12-13T14:44:27.872Z,12.19
2022-12-13T14:47:31.029Z,12.36
2022-12-13T14:50:36.720Z,12.26
2022-12-13T14:53:41.935Z,12.54
2022-12-13T14:57:02.395Z,12.50
2022-12-13T15:00:29.199Z,12.33
2022-12-13T15:03:31.582Z,12.41
2022-12-13T15:06:33.652Z,12.41
2022-12-13T15:09:39.546Z,12.08
2022-12-13T15:12:44.326Z,12.35
2022-12-13T15:15:56.372Z,12.36
2022-12-13T15:19:29.970Z,12.36
2022-12-13T15:22:37.973Z,12.40
2022-12-13T15:25:40.908Z,12.28
2022-12-13T15:28:46.648Z,12.23
2022-12-13T15:31:49.371Z,12.25
2022-12-13T15:34:52.044Z,12.40
2022-12-13T15:37:54.103Z,12.37
2022-12-13T15:40:57.077Z,12.40
2022-12-13T15:44:27.902Z,12.23
2022-12-13T15:47:31.675Z,12.17
2022-12-13T15:50:43.843Z,12.23
2022-12-13T15:54:10.491Z,12.25
2022-12-13T15:57:21.816Z,12.30
2022-12-13T16:00:33.596Z,12.28
2022-12-13T16:03:46.989Z,12.13
2022-12-13T16:06:53.357Z,12.51
2022-12-13T16:09:58.189Z,12.30
2022-12-13T16:13:07.873Z,12.17
2022-12-13T16:16:30.568Z,13.34
2022-12-13T16:19:33.017Z,14.14
2022-12-13T16:22:35.072Z,14.99
2022-12-13T16:25:37.245Z,15.62
2022-12-13T16:28:40.603Z,15.83
2022-12-13T16:31:44.361Z,15.58
2022-12-13T16:34:46.552Z,16.09
2022-12-13T16:37:49.255Z,16.78
2022-12-13T16:40:54.738Z,17.43
2022-12-13T16:44:01.872Z,17.77
2022-12-13T16:47:21.933Z,17.62
2022-12-13T16:50:29.180Z,16.99
2022-12-13T16:53:31.805Z,16.99
2022-12-13T16:56:33.890Z,17.10
2022-12-13T16:59:35.905Z,17.28
2022-12-13T17:02:38.493Z,16.92
2022-12-13T17:05:42.954Z,17.11
2022-12-13T17:08:45.134Z,17.78
2022-12-13T17:11:47.433Z,18.36
2022-12-13T17:14:49.682Z,18.28
2022-12-13T17:17:51.806Z,19.24
2022-12-13T17:20:58.359Z,19.05
2022-12-13T17:24:03.157Z,18.76
2022-12-13T17:27:05.472Z,18.86
2022-12-13T17:30:18.187Z,19.88
2022-12-13T17:33:23.156Z,18.36
2022-12-13T17:36:27.007Z,19.07
2022-12-13T17:39:29.275Z,19.56
2022-12-13T17:42:36.201Z,19.71
2022-12-13T17:45:39.189Z,19.63
2022-12-13T17:48:42.035Z,19.46
2022-12-13T17:51:44.122Z,19.34
2022-12-13T17:54:57.159Z,19.14
2022-12-13T17:58:04.540Z,18.95
2022-12-13T18:01:26.830Z,18.50
2022-12-13T18:04:36.382Z,16.18
2022-12-13T18:08:03.382Z,14.90
2022-12-13T18:14:42.442Z,13.69
2022-12-13T18:18:10.777Z,13.44
2022-12-13T18:21:11.109Z,13.44
2022-12-13T18:24:23.194Z,13.26
2022-12-13T18:27:25.343Z,13.15
2022-12-13T18:30:28.293Z,13.03
2022-12-13T18:33:33.474Z,13.02
2022-12-13T18:36:36.413Z,13.11
2022-12-13T18:39:38.758Z,12.83
2022-12-13T18:42:41.025Z,12.92
2022-12-13T18:45:43.357Z,12.96
2022-12-13T18:48:45.833Z,13.04
2022-12-13T18:51:49.173Z,13.14
2022-12-13T18:54:56.599Z,13.09
2022-12-13T18:57:58.630Z,13.06
2022-12-13T19:01:01.201Z,13.05
2022-12-13T19:04:04.450Z,13.20
2022-12-13T19:07:32.296Z,13.09
2022-12-13T19:10:37.663Z,13.03
2022-12-13T19:13:43.280Z,13.00
2022-12-13T19:16:45.346Z,12.98
2022-12-13T19:19:50.398Z,12.77
2022-12-13T19:22:55.391Z,12.87
2022-12-13T19:26:08.287Z,12.89
2022-12-13T19:29:12.575Z,12.88
2022-12-13T19:32:14.799Z,12.83
2022-12-13T19:35:17.363Z,12.73
2022-12-13T19:38:20.102Z,12.26
2022-12-13T19:41:24.201Z,12.09
2022-12-13T19:44:27.720Z,11.83
2022-12-13T19:47:29.963Z,12.78
2022-12-13T19:50:32.222Z,13.29
2022-12-13T19:53:35.654Z,15.38
2022-12-13T19:56:37.828Z,15.97
2022-12-13T19:59:40.932Z,15.12
2022-12-13T20:02:43.416Z,15.30
2022-12-13T20:05:56.357Z,16.27
2022-12-13T20:08:58.587Z,15.39
2022-12-13T20:12:01.078Z,15.30
2022-12-13T20:15:05.268Z,15.97
2022-12-13T20:18:07.355Z,16.45
2022-12-13T20:21:12.840Z,15.63
2022-12-13T20:24:26.692Z,16.89
2022-12-13T20:27:29.053Z,17.40
2022-12-13T20:30:31.167Z,17.53
2022-12-13T20:33:34.694Z,16.21
2022-12-13T20:36:37.392Z,15.26
2022-12-13T20:42:43.295Z,16.36
2022-12-13T20:45:45.473Z,16.47
2022-12-13T20:48:48.874Z,15.77
2022-12-13T20:51:51.030Z,15.89
2022-12-13T20:54:53.123Z,16.64
2022-12-13T20:57:55.393Z,16.82
2022-12-13T21:00:57.956Z,15.62
2022-12-13T21:04:02.105Z,16.47
2022-12-13T21:07:04.648Z,17.26
2022-12-13T21:10:07.432Z,16.86
2022-12-13T21:13:09.969Z,16.13
2022-12-13T21:16:13.171Z,16.71
2022-12-13T21:19:18.145Z,17.50
2022-12-13T21:22:21.932Z,17.26
2022-12-13T21:25:24.932Z,17.29
2022-12-13T21:28:29.477Z,18.16
2022-12-13T21:31:39.451Z,16.98
2022-12-13T21:35:10.902Z,17.04
2022-12-13T21:38:22.801Z,17.83
2022-12-13T21:41:25.625Z,17.27
2022-12-13T21:44:28.672Z,16.85
2022-12-13T21:47:33.519Z,17.24
2022-12-13T21:50:35.961Z,17.84
2022-12-13T21:53:38.540Z,17.14
2022-12-13T21:57:00.178Z,16.72
2022-12-13T22:00:03.800Z,17.70
2022-12-13T22:03:15.523Z,18.04
2022-12-13T22:06:17.671Z,17.16
2022-12-13T22:09:19.921Z,16.63
2022-12-13T22:12:28.074Z,17.68
2022-12-13T22:15:30.180Z,17.99
2022-12-13T22:18:32.306Z,16.78
2022-12-13T22:21:35.435Z,16.90
2022-12-13T22:24:37.592Z,17.59
2022-12-13T22:27:39.661Z,17.90
2022-12-13T22:30:42.367Z,16.62
2022-12-13T22:33:46.664Z,17.32
2022-12-13T22:36:49.040Z,17.92
2022-12-13T22:39:51.308Z,17.28
2022-12-13T22:42:53.940Z,16.44
2022-12-13T22:46:04.215Z,17.54
2022-12-13T22:49:07.461Z,17.73
2022-12-13T22:52:09.701Z,16.66
2022-12-13T22:55:13.151Z,17.12
2022-12-13T22:58:15.305Z,17.89
2022-12-13T23:01:20.899Z,17.96
2022-12-13T23:04:25.021Z,16.63
2022-12-13T23:07:28.236Z,17.42
2022-12-13T23:10:48.786Z,17.99
2022-12-13T23:13:55.516Z,16.76
2022-12-13T23:16:58.640Z,17.14
2022-12-13T23:20:00.914Z,18.06
2022-12-13T23:23:03.106Z,17.93
2022-12-13T23:26:28.602Z,16.58
2022-12-13T23:29:30.849Z,17.22
2022-12-13T23:32:34.189Z,17.92
2022-12-13T23:35:36.227Z,16.87
2022-12-13T23:38:39.472Z,16.78
2022-12-13T23:41:43.089Z,17.52
2022-12-13T23:44:45.296Z,17.91
2022-12-13T23:47:47.523Z,16.39
2022-12-13T23:50:52.016Z,16.75
2022-12-13T23:53:56.542Z,17.67
2022-12-13T23:56:58.786Z,17.67
